Time;durP1;ratioP1;P1;durP2;ratioP2;P2;SDS_P1;SDS_P2;PMS_P1;PMS_P2;Temp;Humidity;BMP_temperature;BMP_pressure;BME280_temperature;BME280_humidity;BME280_pressure;Samples;Min_cycle;Max_cycle;Signal;HPM_P1;HPM_P2
2021/07/10 00:00:26;;;;;;;;;12.25;9.25;;;;;19.32;55.54;101657.09;6177349;23;44735;-89
2021/07/10 00:02:51;;;;;;;;;12.00;10.67;;;;;19.30;55.77;101656.31;6177401;23;45288;-89
2021/07/10 00:05:16;;;;;;;;;10.25;10.25;;;;;19.30;55.63;101650.22;6177593;23;45335;-89
2021/07/10 00:07:43;;;;;;;;;10.25;10.25;;;;;19.26;56.13;101641.63;6175261;23;46229;-89
2021/07/10 00:10:12;;;;;;;;;11.00;10.00;;;;;19.28;55.86;101649.44;6175127;23;45304;-89
2021/07/10 00:12:38;;;;;;;;;11.50;11.50;;;;;19.28;56.14;101645.03;6176539;23;45297;-89
2021/07/10 00:15:07;;;;;;;;;9.25;8.75;;;;;19.25;56.13;101625.88;6177402;23;45229;-89
2021/07/10 00:17:32;;;;;;;;;7.25;7.25;;;;;19.25;56.45;101626.72;6176938;23;46161;-89
2021/07/10 00:19:57;;;;;;;;;10.25;9.50;;;;;19.26;56.24;101627.56;6174971;23;45300;-89
2021/07/10 00:22:23;;;;;;;;;9.50;9.50;;;;;19.27;55.95;101631.91;6175442;23;45362;-89
2021/07/10 00:24:48;;;;;;;;;12.00;10.75;;;;;19.26;55.91;101630.22;6177648;23;45237;-89
2021/07/10 00:27:14;;;;;;;;;11.25;10.50;;;;;19.29;56.35;101637.94;6175010;23;48101;-89
2021/07/10 00:29:39;;;;;;;;;10.00;10.00;;;;;19.30;56.21;101637.84;6174834;23;45298;-89
2021/07/10 00:32:05;;;;;;;;;9.50;9.50;;;;;19.29;56.16;101632.66;6176965;23;45227;-89
2021/07/10 00:34:31;;;;;;;;;9.00;8.00;;;;;19.29;56.17;101625.59;6178025;23;45363;-89
2021/07/10 00:36:56;;;;;;;;;9.25;8.75;;;;;19.30;56.10;101614.09;6179055;22;45343;-89
2021/07/10 00:39:22;;;;;;;;;7.00;7.00;;;;;19.30;56.08;101608.00;6177117;23;45225;-89
2021/07/10 00:41:47;;;;;;;;;9.50;8.75;;;;;19.35;56.29;101613.84;6177274;23;45242;-89
2021/07/10 00:44:12;;;;;;;;;8.75;8.50;;;;;19.32;55.83;101601.69;6179328;23;45256;-89
2021/07/10 00:46:38;;;;;;;;;8.25;8.00;;;;;19.38;55.93;101607.53;6178802;23;45282;-88
2021/07/10 00:49:03;;;;;;;;;9.50;9.50;;;;;19.39;55.92;101606.59;6176982;23;45325;-89
2021/07/10 00:51:29;;;;;;;;;11.25;9.50;;;;;19.35;55.79;101596.22;6179105;22;45382;-89
2021/07/10 00:53:54;;;;;;;;;9.25;8.00;;;;;19.39;55.86;101602.16;6177522;23;45427;-89
2021/07/10 00:56:20;;;;;;;;;9.50;8.50;;;;;19.41;56.17;101599.41;6178717;23;45919;-89
2021/07/10 00:58:46;;;;;;;;;11.25;8.25;;;;;19.36;56.45;101599.72;6176090;23;45368;-89
2021/07/10 01:01:12;;;;;;;;;9.50;9.00;;;;;19.38;55.99;101599.63;6179219;22;45382;-89
2021/07/10 01:03:44;;;;;;;;;10.00;10.00;;;;;19.38;55.96;101595.19;6177131;23;45300;-89
2021/07/10 01:06:10;;;;;;;;;8.00;8.00;;;;;19.37;56.20;101590.84;6178956;22;45368;-89
2021/07/10 01:08:35;;;;;;;;;9.25;8.75;;;;;19.34;56.15;101585.75;6178822;23;45372;-89
2021/07/10 01:11:01;;;;;;;;;10.50;9.75;;;;;19.35;56.31;101588.28;6179150;22;45257;-88
2021/07/10 01:13:27;;;;;;;;;9.33;9.33;;;;;19.31;56.02;101581.50;6176749;23;45479;-87
2021/07/10 01:15:52;;;;;;;;;9.50;9.50;;;;;19.32;56.21;101579.72;6176777;23;47116;-89
2021/07/10 01:18:18;;;;;;;;;8.67;8.67;;;;;19.26;56.36;101578.31;6178557;22;45367;-89
2021/07/10 01:20:54;;;;;;;;;11.75;10.75;;;;;19.26;56.35;101578.31;6176592;23;45262;-89
2021/07/10 01:23:20;;;;;;;;;9.00;9.00;;;;;19.23;56.83;101573.19;6178765;22;45381;-88
2021/07/10 01:25:46;;;;;;;;;11.50;10.00;;;;;19.25;56.61;101573.13;6176485;23;46412;-88
2021/07/10 01:28:13;;;;;;;;;9.50;9.00;;;;;19.23;56.48;101565.28;6176428;23;45218;-89
2021/07/10 01:30:40;;;;;;;;;10.00;8.25;;;;;19.23;56.39;101557.38;6178568;22;45237;-89
2021/07/10 01:33:06;;;;;;;;;13.50;10.50;;;;;19.21;56.46;101551.34;6176779;23;45337;-89
2021/07/10 01:35:32;;;;;;;;;8.00;8.00;;;;;19.25;56.81;101544.91;6178085;22;45281;-89
2021/07/10 01:38:00;;;;;;;;;9.50;7.00;;;;;19.22;56.96;101539.84;6176446;23;45291;-89
2021/07/10 01:40:26;;;;;;;;;9.75;9.00;;;;;19.25;56.79;101544.09;6178408;22;45241;-89
2021/07/10 01:42:53;;;;;;;;;8.75;7.00;;;;;19.27;56.48;101543.06;6176684;23;45425;-88
2021/07/10 01:45:20;;;;;;;;;9.50;9.00;;;;;19.23;56.35;101534.50;6177976;22;46344;-89
2021/07/10 01:47:47;;;;;;;;;9.50;9.50;;;;;19.27;56.52;101531.66;6178492;22;45330;-87
2021/07/10 01:50:13;;;;;;;;;9.50;7.75;;;;;19.23;56.81;101528.34;6176605;23;45885;-89
2021/07/10 01:52:40;;;;;;;;;9.50;9.00;;;;;19.23;56.58;101523.06;6176643;23;45294;-89
2021/07/10 01:55:10;;;;;;;;;11.25;8.75;;;;;19.24;56.42;101519.50;6178389;22;45843;-89
2021/07/10 01:57:36;;;;;;;;;10.00;10.00;;;;;19.23;56.41;101509.88;6178073;22;45399;-89
2021/07/10 02:00:22;;;;;;;;;11.50;11.00;;;;;19.20;56.40;101500.34;6178109;22;45520;-89
2021/07/10 02:02:48;;;;;;;;;9.50;8.75;;;;;19.19;56.63;101496.03;6176611;23;45363;-89
2021/07/10 02:05:18;;;;;;;;;9.25;8.75;;;;;19.20;56.37;101497.72;6178042;22;45292;-89
2021/07/10 02:07:43;;;;;;;;;8.50;8.50;;;;;19.25;56.96;101496.59;6178112;22;45205;-88
2021/07/10 02:10:11;;;;;;;;;9.50;7.75;;;;;19.21;56.56;101494.13;6178333;23;45145;-89
2021/07/10 02:12:37;;;;;;;;;10.25;8.25;;;;;19.20;56.32;101488.94;6176595;23;45234;-89
2021/07/10 02:15:07;;;;;;;;;10.50;9.00;;;;;19.20;56.19;101484.53;6177667;22;46179;-88
2021/07/10 02:17:34;;;;;;;;;7.25;7.25;;;;;19.19;55.91;101485.47;6178123;22;45252;-89
2021/07/10 02:19:59;;;;;;;;;7.25;6.75;;;;;19.21;56.21;101485.38;6178065;23;45264;-88
2021/07/10 02:22:24;;;;;;;;;9.50;7.00;;;;;19.18;56.28;101482.94;6178543;22;45170;-88
2021/07/10 02:24:50;;;;;;;;;10.00;8.50;;;;;19.17;56.36;101482.06;6175982;23;47331;-89
2021/07/10 02:27:15;;;;;;;;;11.00;8.75;;;;;19.16;55.96;101490.94;6178105;23;45286;-89
2021/07/10 02:29:41;;;;;;;;;8.33;8.33;;;;;19.18;56.48;101481.16;6176233;23;45690;-89
2021/07/10 02:32:07;;;;;;;;;8.33;8.33;;;;;19.20;56.22;101502.13;6178034;22;45292;-89
2021/07/10 02:34:32;;;;;;;;;8.67;7.00;;;;;19.19;55.94;101490.75;6176105;23;47155;-89
2021/07/10 02:36:57;;;;;;;;;11.00;8.67;;;;;19.18;56.24;101488.19;6177832;23;45368;-89
2021/07/10 02:39:23;;;;;;;;;10.00;8.67;;;;;19.21;56.43;101490.66;6178589;22;45209;-88
2021/07/10 02:41:48;;;;;;;;;10.50;9.00;;;;;19.17;56.39;101476.78;6178086;22;45383;-88
2021/07/10 02:44:15;;;;;;;;;9.25;8.00;;;;;19.18;56.35;101482.94;6175584;23;47190;-89
2021/07/10 02:46:40;;;;;;;;;9.50;9.00;;;;;19.19;56.14;101476.69;6177916;22;45250;-89
2021/07/10 02:49:06;;;;;;;;;9.00;7.00;;;;;19.21;56.53;101478.31;6175743;23;45430;-89
2021/07/10 02:51:31;;;;;;;;;7.00;7.00;;;;;19.18;56.17;101472.38;6178251;23;45237;-88
2021/07/10 02:53:57;;;;;;;;;11.33;8.67;;;;;19.19;56.47;101467.00;6177671;22;45331;-89
2021/07/10 02:56:24;;;;;;;;;9.75;9.25;;;;;19.22;56.35;101471.25;6177718;23;45262;-89
2021/07/10 02:58:50;;;;;;;;;8.50;7.75;;;;;19.22;56.47;101471.25;6175752;23;45286;-88
2021/07/10 03:01:16;;;;;;;;;10.50;10.50;;;;;19.20;56.76;101462.56;6178365;22;45392;-88
2021/07/10 03:03:42;;;;;;;;;7.75;7.75;;;;;19.23;56.54;101470.31;6177710;22;45280;-89
2021/07/10 03:06:07;;;;;;;;;10.00;8.25;;;;;19.21;56.81;101462.47;6177959;23;45466;-89
2021/07/10 03:08:32;;;;;;;;;7.00;7.00;;;;;19.22;56.45;101455.41;6177911;23;45365;-89
2021/07/10 03:10:58;;;;;;;;;7.67;7.00;;;;;19.18;56.44;101448.63;6176170;23;45320;-89
2021/07/10 03:13:23;;;;;;;;;11.00;11.00;;;;;19.16;56.47;101446.06;6177546;22;45262;-89
2021/07/10 03:15:49;;;;;;;;;9.75;8.75;;;;;19.16;56.33;101442.59;6175290;23;45292;-89
2021/07/10 03:18:15;;;;;;;;;11.25;7.75;;;;;19.17;56.13;101441.66;6175593;23;45321;-89
2021/07/10 03:20:40;;;;;;;;;8.75;7.50;;;;;19.14;56.06;101447.97;6175855;23;45347;-89
2021/07/10 03:23:06;;;;;;;;;14.25;11.00;;;;;19.14;56.40;101450.63;6177594;23;45760;-88
2021/07/10 03:25:31;;;;;;;;;8.00;7.25;;;;;19.10;56.45;101443.81;6177398;23;45229;-89
2021/07/10 03:27:57;;;;;;;;;8.50;7.75;;;;;19.11;56.33;101448.16;6177825;22;45660;-89
2021/07/10 03:30:24;;;;;;;;;7.50;7.50;;;;;19.12;56.29;101447.19;6177131;22;45343;-88
2021/07/10 03:32:51;;;;;;;;;9.50;8.00;;;;;19.08;56.21;101432.53;6175305;23;48442;-88
2021/07/10 03:35:18;;;;;;;;;11.50;9.00;;;;;19.11;56.49;101436.78;6177248;23;45278;-89
2021/07/10 03:37:45;;;;;;;;;8.75;8.00;;;;;19.06;56.56;101427.34;6177329;22;45275;-89
2021/07/10 03:40:13;;;;;;;;;9.50;9.25;;;;;19.03;56.59;101424.00;6175592;23;45234;-89
2021/07/10 03:42:39;;;;;;;;;10.25;9.00;;;;;19.06;56.06;101434.38;6177312;23;46168;-89
2021/07/10 03:45:08;;;;;;;;;11.50;10.00;;;;;19.00;56.73;101426.81;6175135;23;45701;-89
2021/07/10 03:47:33;;;;;;;;;9.00;8.50;;;;;19.00;56.79;101434.72;6175560;23;44675;-89
2021/07/10 03:49:59;;;;;;;;;10.75;9.50;;;;;18.94;56.60;101431.53;6177381;22;45262;-88
2021/07/10 03:52:24;;;;;;;;;9.25;8.75;;;;;18.96;56.61;101442.00;6177220;23;46207;-89
2021/07/10 03:54:50;;;;;;;;;10.00;8.00;;;;;18.94;56.75;101449.16;6177337;23;45374;-89
2021/07/10 03:57:15;;;;;;;;;7.75;7.75;;;;;18.93;57.26;101439.56;6175277;23;45215;-89
2021/07/10 03:59:41;;;;;;;;;7.75;7.75;;;;;18.93;57.38;101447.47;6175592;23;45218;-88
2021/07/10 04:02:06;;;;;;;;;8.00;8.00;;;;;18.88;57.14;101431.06;6177231;23;46035;-88
2021/07/10 04:04:32;;;;;;;;;7.50;7.50;;;;;18.91;57.05;101433.50;6177225;23;45304;-88
2021/07/10 04:06:57;;;;;;;;;11.00;9.00;;;;;18.87;57.06;101422.31;6175369;23;45462;-88
2021/07/10 04:09:23;;;;;;;;;9.00;9.00;;;;;18.89;57.46;101432.75;6178206;23;45193;-89
2021/07/10 04:11:49;;;;;;;;;10.75;7.00;;;;;18.86;57.26;101425.88;6179117;22;46361;-88
2021/07/10 04:14:14;;;;;;;;;8.00;8.00;;;;;18.89;56.85;101436.22;6178927;22;45220;-88
2021/07/10 04:16:40;;;;;;;;;10.00;10.00;;;;;18.87;57.08;101437.25;6179829;22;45201;-89
2021/07/10 04:19:05;;;;;;;;;10.00;9.50;;;;;18.83;56.93;101431.31;6179974;23;45387;-89
2021/07/10 04:21:31;;;;;;;;;9.25;9.25;;;;;18.83;57.09;101423.41;6179284;23;45338;-89
2021/07/10 04:23:56;;;;;;;;;11.00;9.00;;;;;18.78;57.14;101418.44;6179466;23;45363;-89
2021/07/10 04:26:22;;;;;;;;;10.00;8.50;;;;;18.82;57.17;101419.09;6177355;23;45252;-89
2021/07/10 04:28:48;;;;;;;;;10.00;8.25;;;;;18.82;57.49;101414.69;6179690;23;45445;-89
2021/07/10 04:31:13;;;;;;;;;8.00;7.25;;;;;18.79;56.81;101416.66;6176908;23;48400;-88
2021/07/10 04:33:39;;;;;;;;;9.00;9.00;;;;;18.79;57.12;101420.13;6176986;23;45545;-89
2021/07/10 04:36:04;;;;;;;;;8.00;7.50;;;;;18.80;57.51;101410.44;6179695;22;45305;-88
2021/07/10 04:38:30;;;;;;;;;10.25;9.00;;;;;18.81;57.39;101417.41;6177285;23;45498;-88
2021/07/10 04:40:56;;;;;;;;;10.50;8.50;;;;;18.81;57.19;101430.59;6178917;22;45351;-89
2021/07/10 04:43:21;;;;;;;;;9.00;9.00;;;;;18.78;57.33;101418.44;6178925;23;45163;-89
2021/07/10 04:45:47;;;;;;;;;8.00;8.00;;;;;18.79;57.17;101427.19;6178922;22;45214;-89
2021/07/10 04:48:12;;;;;;;;;8.00;8.00;;;;;18.81;57.64;101427.94;6179687;22;45195;-89
2021/07/10 04:50:38;;;;;;;;;11.00;9.33;;;;;18.80;57.92;101432.34;6178900;22;46223;-88
2021/07/10 04:53:03;;;;;;;;;8.75;8.75;;;;;18.81;57.52;101431.44;6179068;22;45440;-89
2021/07/10 04:55:29;;;;;;;;;8.75;8.00;;;;;18.79;57.66;101435.13;6179120;22;45288;-89
2021/07/10 04:57:54;;;;;;;;;9.00;8.00;;;;;18.77;57.88;101422.00;6179248;23;45320;-89
2021/07/10 05:00:20;;;;;;;;;9.50;8.50;;;;;18.82;57.90;101441.03;6176334;23;46218;-89
2021/07/10 05:02:46;;;;;;;;;9.00;9.00;;;;;18.77;57.75;101434.34;6178552;22;45582;-89
2021/07/10 05:05:12;;;;;;;;;9.50;8.25;;;;;18.77;57.84;101432.56;6178890;22;45273;-89
2021/07/10 05:07:37;;;;;;;;;10.00;8.00;;;;;18.74;57.69;101430.09;6179263;22;45357;-89
2021/07/10 05:10:04;;;;;;;;;9.25;8.25;;;;;18.78;57.97;101433.38;6176739;23;47120;-89
2021/07/10 05:12:30;;;;;;;;;9.50;8.00;;;;;18.80;57.72;101431.53;6176892;23;45297;-89
2021/07/10 05:14:55;;;;;;;;;11.50;11.50;;;;;18.82;57.74;101427.00;6176692;23;45281;-89
2021/07/10 05:17:21;;;;;;;;;9.50;9.00;;;;;18.81;57.85;101428.81;6178955;22;45276;-89
2021/07/10 05:19:46;;;;;;;;;8.50;8.00;;;;;18.87;58.24;101446.03;6178672;23;46097;-89
2021/07/10 05:22:12;;;;;;;;;8.00;8.00;;;;;18.87;57.90;101440.75;6178785;22;45217;-89
2021/07/10 05:24:38;;;;;;;;;11.75;9.00;;;;;18.88;57.92;101438.97;6178799;22;45303;-89
2021/07/10 05:27:05;;;;;;;;;9.75;9.00;;;;;18.90;58.03;101440.59;6176881;23;45425;-88
2021/07/10 05:29:31;;;;;;;;;9.00;8.00;;;;;18.93;58.09;101443.03;6176473;23;46960;-89
2021/07/10 05:31:56;;;;;;;;;8.33;8.00;;;;;18.93;57.91;101429.00;6175828;23;44785;-88
2021/07/10 05:34:21;;;;;;;;;10.25;9.75;;;;;18.98;58.10;101429.53;6178615;22;45272;-89
2021/07/10 05:36:47;;;;;;;;;7.33;7.00;;;;;18.97;58.04;101435.78;6179045;22;45198;-88
2021/07/10 05:39:13;;;;;;;;;10.25;8.50;;;;;18.99;58.04;101431.28;6178520;22;46270;-88
2021/07/10 05:41:39;;;;;;;;;9.50;8.00;;;;;18.99;58.16;101427.78;6178395;22;45219;-89
2021/07/10 05:44:04;;;;;;;;;12.50;9.25;;;;;19.01;57.74;101421.47;6178851;23;45237;-89
2021/07/10 05:46:29;;;;;;;;;9.75;8.50;;;;;19.02;58.30;101419.69;6178435;22;45308;-89
2021/07/10 05:48:55;;;;;;;;;10.75;8.25;;;;;19.04;57.65;101413.41;6178458;23;45305;-89
2021/07/10 05:51:20;;;;;;;;;8.75;8.75;;;;;19.08;57.94;101414.06;6178534;22;45252;-88
2021/07/10 05:53:46;;;;;;;;;8.00;8.00;;;;;19.07;57.56;101410.56;6178586;23;45319;-89
2021/07/10 05:56:11;;;;;;;;;8.50;8.50;;;;;19.05;57.72;101414.22;6176991;23;45454;-89
2021/07/10 05:58:37;;;;;;;;;8.25;8.00;;;;;19.06;58.38;101410.66;6176337;23;46119;-89
2021/07/10 06:01:02;;;;;;;;;10.50;9.00;;;;;19.09;58.02;101413.13;6177913;23;45253;-89
2021/07/10 06:03:28;;;;;;;;;8.50;8.25;;;;;19.06;58.21;101400.97;6178421;22;45240;-89
2021/07/10 06:05:53;;;;;;;;;9.00;9.00;;;;;19.11;58.33;101407.75;6178555;23;45217;-88
2021/07/10 06:08:19;;;;;;;;;7.75;7.75;;;;;19.13;58.32;101401.44;6178354;22;45266;-89
2021/07/10 06:10:44;;;;;;;;;11.00;10.00;;;;;19.17;58.16;101402.91;6176296;23;45499;-88
2021/07/10 06:13:09;;;;;;;;;9.50;9.50;;;;;19.24;58.09;101408.66;6178471;23;45321;-89
2021/07/10 06:15:35;;;;;;;;;11.00;9.00;;;;;19.27;58.10;101402.34;6177784;23;45314;-88
2021/07/10 06:18:00;;;;;;;;;8.75;8.75;;;;;19.32;58.22;101393.22;6177863;23;45294;-89
2021/07/10 06:20:26;;;;;;;;;9.25;8.25;;;;;19.41;58.09;101401.50;6177781;22;45590;-88
2021/07/10 06:22:52;;;;;;;;;9.25;7.75;;;;;19.42;58.00;101400.53;6176143;23;45394;-88
2021/07/10 06:25:20;;;;;;;;;10.00;10.00;;;;;19.49;58.12;101396.59;6178358;23;45442;-89
2021/07/10 06:27:47;;;;;;;;;11.25;10.25;;;;;19.58;57.90;101395.97;6177862;22;46269;-89
2021/07/10 06:30:16;;;;;;;;;8.50;8.00;;;;;19.66;58.08;101394.66;6177127;22;45227;-88
2021/07/10 06:32:42;;;;;;;;;8.00;8.00;;;;;19.68;57.90;101387.47;6177417;22;45356;-88
2021/07/10 06:35:09;;;;;;;;;10.00;10.00;;;;;19.73;57.72;101396.78;6177892;22;45332;-89
2021/07/10 06:37:34;;;;;;;;;9.25;9.25;;;;;19.76;57.90;101404.53;6177430;23;45372;-88
2021/07/10 06:40:00;;;;;;;;;9.00;8.00;;;;;19.74;57.10;101393.22;6177758;22;45301;-88
2021/07/10 06:42:26;;;;;;;;;9.75;8.25;;;;;19.80;57.68;101399.06;6177639;22;45264;-88
2021/07/10 06:44:51;;;;;;;;;9.25;9.25;;;;;19.80;57.60;101388.50;6176173;23;45223;-88
2021/07/10 06:47:18;;;;;;;;;8.00;8.00;;;;;19.82;58.09;101384.81;6174890;23;47083;-88
2021/07/10 06:49:44;;;;;;;;;10.00;8.00;;;;;19.87;57.68;101387.13;6176839;23;45201;-88
2021/07/10 06:52:09;;;;;;;;;9.25;8.75;;;;;19.94;57.92;101392.88;6175497;23;45659;-89
2021/07/10 06:54:37;;;;;;;;;9.50;8.75;;;;;19.96;57.79;101372.47;6177628;22;45449;-89
2021/07/10 06:57:03;;;;;;;;;10.00;9.00;;;;;20.03;58.01;101372.00;6177404;22;46349;-89
2021/07/10 06:59:29;;;;;;;;;7.00;7.00;;;;;20.07;57.60;101374.44;6176849;22;44838;-88
2021/07/10 07:01:54;;;;;;;;;10.50;8.25;;;;;20.11;57.62;101373.28;6175243;23;45358;-89
2021/07/10 07:04:20;;;;;;;;;10.25;10.25;;;;;20.17;57.60;101375.50;6175749;23;45293;-89
2021/07/10 07:06:46;;;;;;;;;11.25;10.00;;;;;20.25;57.72;101369.72;6177295;22;45272;-88
2021/07/10 07:09:12;;;;;;;;;9.50;9.50;;;;;20.31;57.54;101381.69;6175112;23;45198;-89
2021/07/10 07:11:38;;;;;;;;;9.00;9.00;;;;;20.35;57.81;101375.22;6177107;22;45410;-88
2021/07/10 07:14:03;;;;;;;;;9.25;9.25;;;;;20.41;57.24;101377.47;6175896;23;45386;-89
2021/07/10 07:16:29;;;;;;;;;11.00;10.00;;;;;20.42;57.21;101379.16;6176633;22;45965;-89
2021/07/10 07:18:54;;;;;;;;;9.75;8.75;;;;;20.47;56.92;101371.78;6175083;23;45307;-89
2021/07/10 07:21:20;;;;;;;;;9.25;7.50;;;;;20.50;57.24;101371.53;6177666;22;45269;-89
2021/07/10 07:23:45;;;;;;;;;8.00;8.00;;;;;20.56;56.95;101365.84;6176048;23;45388;-88
2021/07/10 07:26:11;;;;;;;;;9.00;7.50;;;;;20.65;57.53;101371.47;6177092;22;45380;-89
2021/07/10 07:28:37;;;;;;;;;9.50;8.50;;;;;20.69;57.72;101371.13;6175295;23;45225;-89
2021/07/10 07:31:03;;;;;;;;;9.50;9.50;;;;;20.78;57.20;101360.88;6174642;23;45428;-89
2021/07/10 07:33:29;;;;;;;;;10.00;10.00;;;;;20.84;57.18;101360.44;6175372;23;45582;-89
2021/07/10 07:35:55;;;;;;;;;10.00;8.00;;;;;20.95;56.61;101354.41;6174540;23;46898;-89
2021/07/10 07:38:22;;;;;;;;;8.00;8.00;;;;;21.06;56.67;101358.97;6175149;23;45287;-89
2021/07/10 07:40:48;;;;;;;;;11.00;10.25;;;;;21.11;56.75;101353.34;6176773;22;45159;-88
2021/07/10 07:43:14;;;;;;;;;9.67;8.67;;;;;21.18;56.59;101351.94;6176543;22;45297;-89
2021/07/10 07:45:39;;;;;;;;;8.67;8.67;;;;;21.28;56.38;101352.16;6174774;23;47035;-89
2021/07/10 07:48:05;;;;;;;;;10.33;9.67;;;;;21.31;56.06;101344.81;6177028;22;44684;-89
2021/07/10 07:50:31;;;;;;;;;9.33;7.67;;;;;21.37;55.18;101348.81;6176880;22;45373;-89
2021/07/10 07:52:57;;;;;;;;;13.00;10.00;;;;;21.34;55.75;101344.59;6177704;22;45292;-89
2021/07/10 07:55:22;;;;;;;;;8.67;6.00;;;;;21.41;55.62;101352.94;6177198;22;45407;-89
2021/07/10 07:57:48;;;;;;;;;11.33;10.00;;;;;21.44;55.48;101347.41;6174893;23;45413;-89
2021/07/10 08:00:19;;;;;;;;;9.67;7.33;;;;;21.51;55.28;101347.00;6177241;22;45367;-89
2021/07/10 08:02:44;;;;;;;;;9.67;8.67;;;;;21.52;55.36;101344.19;6177380;22;45327;-89
2021/07/10 08:05:10;;;;;;;;;9.33;8.00;;;;;21.54;55.39;101342.31;6174971;23;47117;-89
2021/07/10 08:07:36;;;;;;;;;9.00;8.00;;;;;21.54;54.93;101338.81;6176933;23;45312;-89
2021/07/10 08:10:03;;;;;;;;;10.33;9.00;;;;;21.55;54.84;101346.63;6176940;23;45378;-89
2021/07/10 08:12:28;;;;;;;;;8.33;8.33;;;;;21.57;55.00;101354.47;6175654;23;45421;-89
2021/07/10 08:14:54;;;;;;;;;8.33;8.33;;;;;21.52;54.94;101344.19;6176606;23;46350;-89
2021/07/10 08:17:19;;;;;;;;;9.00;8.67;;;;;21.47;54.91;101336.59;6174298;23;45593;-89
2021/07/10 08:19:45;;;;;;;;;11.00;11.00;;;;;21.45;54.41;101346.47;6177187;23;45697;-89
2021/07/10 08:22:10;;;;;;;;;9.00;9.00;;;;;21.43;54.36;101344.91;6175214;23;45341;-89
2021/07/10 08:24:36;;;;;;;;;9.33;8.67;;;;;21.39;54.12;101346.91;6177085;23;45319;-89
2021/07/10 08:27:01;;;;;;;;;9.67;9.33;;;;;21.36;54.94;101341.84;6177000;23;45309;-89
2021/07/10 08:29:28;;;;;;;;;8.75;8.75;;;;;21.36;54.92;101339.19;6177235;23;45183;-89
2021/07/10 08:31:54;;;;;;;;;8.67;8.00;;;;;21.37;54.49;101343.53;6174738;23;45517;-89
2021/07/10 08:34:19;;;;;;;;;7.00;7.00;;;;;21.35;54.25;101348.09;6175702;23;45715;-89
2021/07/10 08:36:44;;;;;;;;;10.00;8.75;;;;;21.32;54.58;101333.28;6172814;23;45280;-89
2021/07/10 08:39:10;;;;;;;;;10.50;8.00;;;;;21.32;54.59;101335.94;6172643;23;45731;-89
2021/07/10 08:41:36;;;;;;;;;9.00;9.00;;;;;21.33;54.12;101337.59;6175690;23;45488;-89
2021/07/10 08:44:03;;;;;;;;;9.50;9.00;;;;;21.32;53.49;101329.78;6174176;23;46708;-89
2021/07/10 08:46:28;;;;;;;;;7.50;7.50;;;;;21.29;54.15;101325.53;6176497;23;45437;-89
2021/07/10 08:48:56;;;;;;;;;7.00;7.00;;;;;21.33;54.39;101337.59;6176879;23;45383;-89
2021/07/10 08:51:21;;;;;;;;;7.25;7.00;;;;;21.32;54.43;101333.28;6176890;23;45356;-89
2021/07/10 08:53:47;;;;;;;;;7.00;7.00;;;;;21.34;54.23;101327.88;6174773;23;48426;-89
2021/07/10 08:56:12;;;;;;;;;7.50;7.50;;;;;21.36;54.36;101328.59;6176141;23;45294;-89
2021/07/10 08:58:38;;;;;;;;;6.75;6.75;;;;;21.38;54.50;101334.63;6177422;22;45804;-89
2021/07/10 09:01:09;;;;;;;;;6.00;6.00;;;;;21.43;54.63;101336.94;6177292;22;45329;-88
2021/07/10 09:03:34;;;;;;;;;6.00;6.00;;;;;21.44;54.11;101338.63;6176150;23;47151;-90
2021/07/10 09:06:00;;;;;;;;;5.00;5.00;;;;;21.47;54.47;101341.91;6179448;22;45436;-90
2021/07/10 09:08:27;;;;;;;;;5.25;5.25;;;;;21.48;54.26;101343.59;6179037;22;45224;-89
2021/07/10 09:11:13;;;;;;;;;6.50;6.25;;;;;21.45;53.40;101346.47;6179261;23;45284;-88
2021/07/10 09:13:48;;;;;;;;;9.00;7.25;;;;;21.39;53.98;101340.78;6177423;22;46455;-89
2021/07/10 09:16:16;;;;;;;;;6.00;6.00;;;;;21.36;53.51;101341.84;6178671;22;45252;-89
2021/07/10 09:19:02;;;;;;;;;5.50;5.50;;;;;21.32;53.05;101350.94;6176545;23;45300;-89
2021/07/10 09:21:48;;;;;;;;;5.00;5.00;;;;;21.27;53.16;101353.06;6176787;23;45258;-89
2021/07/10 09:24:22;;;;;;;;;5.75;4.00;;;;;21.22;53.34;101359.56;6176356;23;46188;-89
2021/07/10 09:26:57;;;;;;;;;3.67;3.67;;;;;21.15;52.78;101349.53;6177754;23;45676;-89
2021/07/10 09:29:28;;;;;;;;;5.00;4.00;;;;;21.09;52.88;101358.75;6178743;23;45464;-89
2021/07/10 09:32:03;;;;;;;;;5.33;5.00;;;;;21.01;53.17;101366.38;6178148;22;45170;-89
2021/07/10 09:34:41;;;;;;;;;5.00;5.00;;;;;20.93;53.35;101356.34;6177463;22;45416;-90
2021/07/10 09:37:14;;;;;;;;;4.67;2.67;;;;;20.87;53.39;101351.47;6178861;22;44758;-89
2021/07/10 09:39:43;;;;;;;;;3.00;3.00;;;;;20.83;52.94;101340.25;6177883;22;45335;-88
2021/07/10 09:42:13;;;;;;;;;4.33;2.67;;;;;20.79;53.46;101328.19;6176069;23;45435;-89
2021/07/10 09:44:48;;;;;;;;;2.00;2.00;;;;;20.78;53.82;101334.44;6176192;23;48321;-89
2021/07/10 09:47:17;;;;;;;;;1.00;1.00;;;;;20.72;52.94;101334.84;6176461;23;45282;-89
2021/07/10 09:49:45;;;;;;;;;2.00;2.00;;;;;20.67;52.59;101336.03;6177976;22;45352;-89
2021/07/10 09:52:12;;;;;;;;;3.00;2.33;;;;;20.62;52.73;101335.50;6178755;23;45609;-89
2021/07/10 09:54:49;;;;;;;;;2.00;2.00;;;;;20.61;52.70;101325.88;6176363;23;48333;-90
2021/07/10 09:57:18;;;;;;;;;2.00;2.00;;;;;20.53;52.31;101322.91;6176658;23;45306;-89
2021/07/10 09:59:50;;;;;;;;;2.00;1.00;;;;;20.48;53.56;101325.03;6178684;22;45314;-90
2021/07/10 10:02:19;;;;;;;;;2.00;2.00;;;;;20.50;53.32;101336.34;6178128;23;45331;-90
2021/07/10 10:04:45;;;;;;;;;1.67;1.67;;;;;20.50;53.91;101329.25;6175899;23;47189;-91
2021/07/10 10:07:13;;;;;;;;;2.00;2.00;;;;;20.51;54.08;101314.25;6145602;22;45994;-89
2021/07/10 10:09:39;;;;;;;;;2.00;2.00;;;;;20.55;53.65;101313.91;6176830;23;45296;-91
2021/07/10 10:12:08;;;;;;;;;1.00;1.00;;;;;20.57;53.76;101329.69;6177433;23;44837;-90
2021/07/10 10:14:39;;;;;;;;;2.00;2.00;;;;;20.57;53.82;101321.75;6177143;23;46553;-90
2021/07/10 10:17:06;;;;;;;;;1.67;1.00;;;;;20.56;53.37;101320.88;6177014;23;45388;-91
2021/07/10 10:19:33;;;;;;;;;3.00;2.00;;;;;20.59;53.38;101324.28;6176949;23;45344;-90
2021/07/10 10:22:02;;;;;;;;;2.00;2.00;;;;;20.61;52.98;101327.66;6176963;23;45310;-91
2021/07/10 10:24:30;;;;;;;;;3.00;3.00;;;;;20.57;53.18;101329.69;6178780;23;45349;-91
2021/07/10 10:26:57;;;;;;;;;2.67;2.67;;;;;20.58;53.66;101326.06;6176790;23;45349;-90
2021/07/10 10:29:25;;;;;;;;;1.00;1.00;;;;;20.63;53.99;101329.25;6177073;23;45468;-90
2021/07/10 10:31:51;;;;;;;;;2.00;2.00;;;;;20.65;53.65;101322.03;6176262;23;45276;-90
2021/07/10 10:34:17;;;;;;;;;2.00;2.00;;;;;20.66;53.56;101336.13;6176321;23;47291;-90
2021/07/10 10:36:45;;;;;;;;;3.00;2.00;;;;;20.63;53.84;101328.41;6178380;23;44700;-91
2021/07/10 10:39:15;;;;;;;;;2.00;2.00;;;;;20.67;54.51;101321.94;6176679;23;45551;-90
2021/07/10 10:41:43;;;;;;;;;2.00;2.00;;;;;20.76;54.26;101317.81;6175814;23;45410;-90
2021/07/10 10:44:09;;;;;;;;;3.33;2.33;;;;;20.81;54.20;101307.75;6176241;23;47848;-91
2021/07/10 10:46:52;;;;;;;;;2.67;2.67;;;;;20.91;54.20;101310.63;6175581;23;45234;-90
2021/07/10 10:49:49;;;;;;;;;2.33;2.00;;;;;20.98;54.00;101301.31;6178068;23;45246;-90
2021/07/10 10:52:44;;;;;;;;;2.33;2.33;;;;;21.07;54.20;101290.03;6240842;22;45449;-90
2021/07/10 10:55:13;;;;;;;;;4.00;3.00;;;;;21.18;53.76;101299.88;6212338;22;47125;-91
2021/07/10 10:57:43;;;;;;;;;3.67;3.00;;;;;21.23;53.05;101308.31;6237696;22;45247;-90
2021/07/10 11:00:15;;;;;;;;;2.00;2.00;;;;;21.31;53.65;101302.47;6212849;22;45475;-90
2021/07/10 11:02:49;;;;;;;;;1.67;1.67;;;;;21.41;53.22;101307.94;6212472;22;45504;-91
2021/07/10 11:05:34;;;;;;;;;1.00;1.00;;;;;21.43;52.27;101300.72;6237484;22;48499;-89
2021/07/10 11:08:18;;;;;;;;;1.00;1.00;;;;;21.47;51.56;101302.19;6223259;22;45604;-90
2021/07/10 11:11:04;;;;;;;;;1.67;1.00;;;;;21.50;52.45;101301.13;6240435;22;45361;-90
2021/07/10 11:13:29;;;;;;;;;4.00;2.00;;;;;21.54;51.26;101301.72;6196590;22;45406;-90
2021/07/10 11:16:19;;;;;;;;;1.33;1.33;;;;;21.54;51.65;101292.00;6236955;22;47840;-90
2021/07/10 11:18:58;;;;;;;;;2.00;1.00;;;;;21.59;51.63;101300.44;6211668;22;45338;-90
2021/07/10 11:21:34;;;;;;;;;4.00;2.00;;;;;21.69;51.25;101302.38;6212939;22;45788;-90